sensor_id;sensor_type;location;lat;lon;timestamp;pressure;altitude;pressure_sealevel;temperature;humidity
70217;BME280;65567;55.684;37.570;2023-02-01T00:02:01;97866.44;;;3.78;61.07
70217;BME280;65567;55.684;37.570;2023-02-01T00:04:27;97868.94;;;3.79;60.92
70217;BME280;65567;55.684;37.570;2023-02-01T00:06:53;97866.00;;;3.87;60.55
70217;BME280;65567;55.684;37.570;2023-02-01T00:09:22;97871.19;;;3.87;60.67
70217;BME280;65567;55.684;37.570;2023-02-01T00:11:48;97875.31;;;3.91;60.77
70217;BME280;65567;55.684;37.570;2023-02-01T00:14:14;97875.03;;;3.97;60.28
70217;BME280;65567;55.684;37.570;2023-02-01T00:16:40;97872.59;;;3.94;60.46
70217;BME280;65567;55.684;37.570;2023-02-01T00:19:15;97867.56;;;3.72;60.97
70217;BME280;65567;55.684;37.570;2023-02-01T00:21:41;97869.28;;;3.72;60.99
70217;BME280;65567;55.684;37.570;2023-02-01T00:24:09;97869.91;;;3.77;60.82
70217;BME280;65567;55.684;37.570;2023-02-01T00:26:41;97869.50;;;3.86;60.66
70217;BME280;65567;55.684;37.570;2023-02-01T00:29:13;97875.25;;;3.74;60.67
70217;BME280;65567;55.684;37.570;2023-02-01T00:31:39;97877.06;;;3.72;61.24
70217;BME280;65567;55.684;37.570;2023-02-01T00:34:06;97873.28;;;3.79;60.62
70217;BME280;65567;55.684;37.570;2023-02-01T00:36:31;97872.88;;;3.88;60.62
70217;BME280;65567;55.684;37.570;2023-02-01T00:38:57;97876.88;;;3.95;60.36
70217;BME280;65567;55.684;37.570;2023-02-01T00:41:24;97869.22;;;3.92;60.24
70217;BME280;65567;55.684;37.570;2023-02-01T00:43:50;97859.56;;;3.96;60.19
70217;BME280;65567;55.684;37.570;2023-02-01T00:46:18;97867.00;;;3.85;60.46
70217;BME280;65567;55.684;37.570;2023-02-01T00:48:44;97868.81;;;3.83;60.44
70217;BME280;65567;55.684;37.570;2023-02-01T00:51:17;97862.16;;;3.77;60.79
70217;BME280;65567;55.684;37.570;2023-02-01T00:53:44;97871.63;;;3.78;60.63
70217;BME280;65567;55.684;37.570;2023-02-01T00:56:11;97863.13;;;3.74;60.76
70217;BME280;65567;55.684;37.570;2023-02-01T00:58:38;97863.84;;;3.78;60.36
70217;BME280;65567;55.684;37.570;2023-02-01T01:01:19;97864.75;;;3.77;60.69
70217;BME280;65567;55.684;37.570;2023-02-01T01:03:48;97867.22;;;3.80;60.54
70217;BME280;65567;55.684;37.570;2023-02-01T01:06:21;97862.78;;;3.82;60.53
70217;BME280;65567;55.684;37.570;2023-02-01T01:08:50;97863.34;;;3.70;60.77
70217;BME280;65567;55.684;37.570;2023-02-01T01:11:19;97867.47;;;3.74;60.72
70217;BME280;65567;55.684;37.570;2023-02-01T01:13:49;97863.22;;;3.73;60.73
70217;BME280;65567;55.684;37.570;2023-02-01T01:16:17;97870.78;;;3.77;60.38
70217;BME280;65567;55.684;37.570;2023-02-01T01:18:43;97878.34;;;4.01;59.68
70217;BME280;65567;55.684;37.570;2023-02-01T01:21:12;97867.00;;;4.04;59.59
70217;BME280;65567;55.684;37.570;2023-02-01T01:23:38;97870.97;;;4.11;59.35
70217;BME280;65567;55.684;37.570;2023-02-01T01:26:14;97872.31;;;4.01;59.45
70217;BME280;65567;55.684;37.570;2023-02-01T01:28:40;97875.56;;;4.06;59.62
70217;BME280;65567;55.684;37.570;2023-02-01T01:31:11;97877.50;;;4.01;59.46
70217;BME280;65567;55.684;37.570;2023-02-01T01:33:37;97880.22;;;3.97;59.78
70217;BME280;65567;55.684;37.570;2023-02-01T01:36:08;97889.97;;;3.92;59.93
70217;BME280;65567;55.684;37.570;2023-02-01T01:38:38;97876.25;;;3.90;59.69
70217;BME280;65567;55.684;37.570;2023-02-01T01:41:04;97883.50;;;3.82;60.12
70217;BME280;65567;55.684;37.570;2023-02-01T01:46:26;97891.56;;;4.14;59.13
70217;BME280;65567;55.684;37.570;2023-02-01T01:51:31;97887.84;;;3.82;60.08
70217;BME280;65567;55.684;37.570;2023-02-01T01:54:14;97890.09;;;3.89;59.96
70217;BME280;65567;55.684;37.570;2023-02-01T01:56:43;97892.28;;;3.99;59.80
70217;BME280;65567;55.684;37.570;2023-02-01T01:59:12;97889.53;;;4.02;59.38
70217;BME280;65567;55.684;37.570;2023-02-01T02:01:38;97891.69;;;4.11;59.38
70217;BME280;65567;55.684;37.570;2023-02-01T02:04:04;97879.59;;;4.11;58.94
70217;BME280;65567;55.684;37.570;2023-02-01T02:07:04;97889.53;;;4.02;59.54
70217;BME280;65567;55.684;37.570;2023-02-01T02:09:31;97882.75;;;3.80;59.91
70217;BME280;65567;55.684;37.570;2023-02-01T02:11:57;97884.66;;;3.95;59.61
70217;BME280;65567;55.684;37.570;2023-02-01T02:14:24;97891.09;;;4.06;59.51
70217;BME280;65567;55.684;37.570;2023-02-01T02:17:05;97884.00;;;4.28;58.97
70217;BME280;65567;55.684;37.570;2023-02-01T02:22:54;97891.34;;;4.19;59.02
70217;BME280;65567;55.684;37.570;2023-02-01T02:28:17;97899.75;;;4.24;59.08
70217;BME280;65567;55.684;37.570;2023-02-01T02:39:52;97904.81;;;4.08;59.14
70217;BME280;65567;55.684;37.570;2023-02-01T02:42:17;97901.66;;;4.01;59.23
70217;BME280;65567;55.684;37.570;2023-02-01T02:45:28;97901.63;;;3.82;59.99
70217;BME280;65567;55.684;37.570;2023-02-01T02:48:28;97905.00;;;3.84;60.10
70217;BME280;65567;55.684;37.570;2023-02-01T02:51:04;97904.53;;;3.76;60.20
70217;BME280;65567;55.684;37.570;2023-02-01T02:56:37;97903.19;;;4.05;59.25
70217;BME280;65567;55.684;37.570;2023-02-01T02:59:25;97907.38;;;3.89;59.84
70217;BME280;65567;55.684;37.570;2023-02-01T03:02:11;97897.41;;;3.81;60.17
70217;BME280;65567;55.684;37.570;2023-02-01T03:04:56;97900.50;;;3.69;60.48
70217;BME280;65567;55.684;37.570;2023-02-01T03:11:00;97904.78;;;3.70;60.66
70217;BME280;65567;55.684;37.570;2023-02-01T03:16:32;97908.72;;;3.78;60.11
70217;BME280;65567;55.684;37.570;2023-02-01T03:19:32;97912.75;;;3.65;60.76
70217;BME280;65567;55.684;37.570;2023-02-01T03:24:34;97912.63;;;3.87;60.09
70217;BME280;65567;55.684;37.570;2023-02-01T03:29:54;97910.72;;;3.72;60.61
70217;BME280;65567;55.684;37.570;2023-02-01T03:32:20;97913.28;;;3.92;59.96
70217;BME280;65567;55.684;37.570;2023-02-01T03:34:47;97908.53;;;4.02;59.74
70217;BME280;65567;55.684;37.570;2023-02-01T03:37:19;97911.69;;;4.09;59.51
70217;BME280;65567;55.684;37.570;2023-02-01T03:39:53;97903.56;;;3.78;59.97
70217;BME280;65567;55.684;37.570;2023-02-01T03:42:28;97913.41;;;3.89;59.95
70217;BME280;65567;55.684;37.570;2023-02-01T03:45:19;97915.16;;;4.08;59.43
70217;BME280;65567;55.684;37.570;2023-02-01T03:47:49;97917.41;;;4.16;59.38
70217;BME280;65567;55.684;37.570;2023-02-01T03:50:19;97923.03;;;4.06;59.71
70217;BME280;65567;55.684;37.570;2023-02-01T03:52:57;97927.91;;;3.93;59.81
70217;BME280;65567;55.684;37.570;2023-02-01T03:55:25;97932.56;;;4.06;59.74
70217;BME280;65567;55.684;37.570;2023-02-01T03:57:57;97938.00;;;4.19;59.48
70217;BME280;65567;55.684;37.570;2023-02-01T04:00:26;97934.50;;;4.01;59.67
70217;BME280;65567;55.684;37.570;2023-02-01T04:02:53;97936.66;;;3.91;60.17
70217;BME280;65567;55.684;37.570;2023-02-01T04:05:20;97946.88;;;3.94;59.91
70217;BME280;65567;55.684;37.570;2023-02-01T04:07:46;97941.75;;;3.92;60.10
70217;BME280;65567;55.684;37.570;2023-02-01T04:10:12;97950.81;;;4.03;59.72
70217;BME280;65567;55.684;37.570;2023-02-01T04:12:40;97950.59;;;4.26;59.18
70217;BME280;65567;55.684;37.570;2023-02-01T04:15:07;97953.63;;;4.17;59.33
70217;BME280;65567;55.684;37.570;2023-02-01T04:17:33;97955.91;;;4.04;60.00
70217;BME280;65567;55.684;37.570;2023-02-01T04:19:59;97955.34;;;3.97;60.04
70217;BME280;65567;55.684;37.570;2023-02-01T04:22:25;97956.34;;;3.95;60.22
70217;BME280;65567;55.684;37.570;2023-02-01T04:24:51;97954.25;;;4.03;59.91
70217;BME280;65567;55.684;37.570;2023-02-01T04:27:17;97950.06;;;4.01;59.83
70217;BME280;65567;55.684;37.570;2023-02-01T04:29:43;97958.09;;;4.13;59.86
70217;BME280;65567;55.684;37.570;2023-02-01T04:32:10;97966.66;;;4.16;59.37
70217;BME280;65567;55.684;37.570;2023-02-01T04:34:37;97959.03;;;4.12;59.43
70217;BME280;65567;55.684;37.570;2023-02-01T04:37:03;97955.72;;;4.09;59.76
70217;BME280;65567;55.684;37.570;2023-02-01T04:39:29;97960.41;;;4.01;59.77
70217;BME280;65567;55.684;37.570;2023-02-01T04:41:55;97965.97;;;3.91;60.19
70217;BME280;65567;55.684;37.570;2023-02-01T04:44:21;97962.31;;;3.97;60.24
70217;BME280;65567;55.684;37.570;2023-02-01T04:46:47;97963.69;;;4.04;59.90
70217;BME280;65567;55.684;37.570;2023-02-01T04:49:14;97971.13;;;4.12;59.81
70217;BME280;65567;55.684;37.570;2023-02-01T04:51:40;97968.75;;;4.07;59.93
70217;BME280;65567;55.684;37.570;2023-02-01T04:54:07;97977.59;;;4.03;59.62
70217;BME280;65567;55.684;37.570;2023-02-01T04:56:34;97983.09;;;3.95;59.97
70217;BME280;65567;55.684;37.570;2023-02-01T04:59:03;97982.69;;;4.05;59.92
70217;BME280;65567;55.684;37.570;2023-02-01T05:01:30;97990.25;;;4.09;59.88
70217;BME280;65567;55.684;37.570;2023-02-01T05:03:56;97989.56;;;4.06;59.56
70217;BME280;65567;55.684;37.570;2023-02-01T05:06:23;97984.63;;;4.00;59.93
70217;BME280;65567;55.684;37.570;2023-02-01T05:08:49;97988.84;;;4.02;59.88
70217;BME280;65567;55.684;37.570;2023-02-01T05:11:15;97986.25;;;4.02;59.80
70217;BME280;65567;55.684;37.570;2023-02-01T05:14:00;97996.97;;;3.94;59.89
70217;BME280;65567;55.684;37.570;2023-02-01T05:16:26;98000.19;;;4.00;59.96
70217;BME280;65567;55.684;37.570;2023-02-01T05:18:53;97996.41;;;4.07;59.49
70217;BME280;65567;55.684;37.570;2023-02-01T05:21:19;98003.75;;;3.97;60.03
70217;BME280;65567;55.684;37.570;2023-02-01T05:23:45;98009.53;;;3.83;60.37
70217;BME280;65567;55.684;37.570;2023-02-01T05:26:30;97999.75;;;3.90;60.26
70217;BME280;65567;55.684;37.570;2023-02-01T05:28:55;98010.97;;;3.90;60.20
70217;BME280;65567;55.684;37.570;2023-02-01T05:31:23;98000.59;;;3.90;60.20
70217;BME280;65567;55.684;37.570;2023-02-01T05:33:49;98002.94;;;3.76;60.42
70217;BME280;65567;55.684;37.570;2023-02-01T05:36:15;98001.91;;;3.80;60.60
70217;BME280;65567;55.684;37.570;2023-02-01T05:38:41;98007.00;;;3.82;60.68
70217;BME280;65567;55.684;37.570;2023-02-01T05:41:07;98006.59;;;3.91;60.26
70217;BME280;65567;55.684;37.570;2023-02-01T05:43:34;98008.22;;;3.93;60.04
70217;BME280;65567;55.684;37.570;2023-02-01T05:46:00;98014.03;;;3.99;59.91
70217;BME280;65567;55.684;37.570;2023-02-01T05:48:26;98016.44;;;4.03;60.07
70217;BME280;65567;55.684;37.570;2023-02-01T05:50:52;98018.09;;;4.04;59.95
70217;BME280;65567;55.684;37.570;2023-02-01T05:53:19;98017.69;;;4.13;59.85
70217;BME280;65567;55.684;37.570;2023-02-01T05:55:45;98015.25;;;4.10;59.67
70217;BME280;65567;55.684;37.570;2023-02-01T05:58:11;98009.53;;;4.23;59.32
70217;BME280;65567;55.684;37.570;2023-02-01T06:00:38;98023.97;;;4.28;59.12
70217;BME280;65567;55.684;37.570;2023-02-01T06:03:04;98020.53;;;4.28;59.39
70217;BME280;65567;55.684;37.570;2023-02-01T06:05:30;98021.38;;;4.28;59.30
70217;BME280;65567;55.684;37.570;2023-02-01T06:07:57;98024.16;;;4.24;59.46
70217;BME280;65567;55.684;37.570;2023-02-01T06:10:24;98029.41;;;4.22;59.24
70217;BME280;65567;55.684;37.570;2023-02-01T06:12:50;98027.47;;;4.27;59.36
70217;BME280;65567;55.684;37.570;2023-02-01T06:15:16;98034.25;;;4.30;59.25
70217;BME280;65567;55.684;37.570;2023-02-01T06:17:44;98026.78;;;4.43;58.71
70217;BME280;65567;55.684;37.570;2023-02-01T06:20:12;98035.50;;;4.21;59.52
70217;BME280;65567;55.684;37.570;2023-02-01T06:22:39;98038.44;;;4.13;59.56
70217;BME280;65567;55.684;37.570;2023-02-01T06:25:07;98034.50;;;4.05;59.67
70217;BME280;65567;55.684;37.570;2023-02-01T06:27:33;98035.09;;;4.11;59.66
70217;BME280;65567;55.684;37.570;2023-02-01T06:29:59;98037.97;;;4.24;59.25
70217;BME280;65567;55.684;37.570;2023-02-01T06:32:26;98044.06;;;4.23;59.23
70217;BME280;65567;55.684;37.570;2023-02-01T06:34:52;98042.38;;;4.22;59.37
70217;BME280;65567;55.684;37.570;2023-02-01T06:37:19;98052.47;;;4.28;59.03
70217;BME280;65567;55.684;37.570;2023-02-01T06:39:45;98037.59;;;4.13;59.56
70217;BME280;65567;55.684;37.570;2023-02-01T06:42:12;98042.94;;;3.89;60.05
70217;BME280;65567;55.684;37.570;2023-02-01T06:44:38;98036.88;;;3.90;60.07
70217;BME280;65567;55.684;37.570;2023-02-01T06:47:04;98044.47;;;4.14;59.26
70217;BME280;65567;55.684;37.570;2023-02-01T06:49:30;98040.22;;;3.92;59.84
70217;BME280;65567;55.684;37.570;2023-02-01T06:51:56;98042.53;;;3.99;59.75
70217;BME280;65567;55.684;37.570;2023-02-01T06:54:22;98035.41;;;4.04;59.55
70217;BME280;65567;55.684;37.570;2023-02-01T06:56:51;98047.00;;;4.16;59.33
70217;BME280;65567;55.684;37.570;2023-02-01T06:59:17;98049.78;;;4.11;59.46
70217;BME280;65567;55.684;37.570;2023-02-01T07:01:44;98045.53;;;3.89;60.11
70217;BME280;65567;55.684;37.570;2023-02-01T07:04:11;98053.81;;;3.97;59.86
70217;BME280;65567;55.684;37.570;2023-02-01T07:06:38;98046.94;;;3.96;59.46
70217;BME280;65567;55.684;37.570;2023-02-01T07:09:05;98051.69;;;3.87;59.80
70217;BME280;65567;55.684;37.570;2023-02-01T07:11:31;98055.97;;;4.08;59.21
70217;BME280;65567;55.684;37.570;2023-02-01T07:13:57;98065.63;;;4.24;59.07
70217;BME280;65567;55.684;37.570;2023-02-01T07:16:26;98054.28;;;4.26;58.84
70217;BME280;65567;55.684;37.570;2023-02-01T07:18:53;98060.13;;;4.11;59.18
70217;BME280;65567;55.684;37.570;2023-02-01T07:21:19;98060.44;;;4.24;58.41
70217;BME280;65567;55.684;37.570;2023-02-01T07:23:45;98066.50;;;4.24;58.63
70217;BME280;65567;55.684;37.570;2023-02-01T07:26:13;98073.56;;;4.00;59.05
70217;BME280;65567;55.684;37.570;2023-02-01T07:28:40;98074.13;;;4.07;58.87
70217;BME280;65567;55.684;37.570;2023-02-01T07:31:10;98067.03;;;3.91;59.06
70217;BME280;65567;55.684;37.570;2023-02-01T07:33:36;98070.66;;;4.08;58.85
70217;BME280;65567;55.684;37.570;2023-02-01T07:36:04;98069.09;;;4.04;58.72
70217;BME280;65567;55.684;37.570;2023-02-01T07:38:31;98073.25;;;4.08;58.62
70217;BME280;65567;55.684;37.570;2023-02-01T07:40:59;98068.84;;;4.10;58.82
70217;BME280;65567;55.684;37.570;2023-02-01T07:43:26;98077.19;;;3.96;58.92
70217;BME280;65567;55.684;37.570;2023-02-01T07:45:53;98071.03;;;3.99;58.82
70217;BME280;65567;55.684;37.570;2023-02-01T07:48:21;98081.41;;;3.99;58.83
70217;BME280;65567;55.684;37.570;2023-02-01T07:50:47;98076.47;;;3.92;59.19
70217;BME280;65567;55.684;37.570;2023-02-01T07:53:14;98067.47;;;4.01;58.84
70217;BME280;65567;55.684;37.570;2023-02-01T07:55:40;98074.44;;;4.01;58.93
70217;BME280;65567;55.684;37.570;2023-02-01T07:58:06;98066.50;;;4.24;58.32
70217;BME280;65567;55.684;37.570;2023-02-01T08:00:32;98077.66;;;4.06;58.59
70217;BME280;65567;55.684;37.570;2023-02-01T08:03:17;98070.50;;;4.11;58.57
70217;BME280;65567;55.684;37.570;2023-02-01T08:05:45;98072.47;;;4.06;58.59
70217;BME280;65567;55.684;37.570;2023-02-01T08:08:11;98074.03;;;4.10;58.22
70217;BME280;65567;55.684;37.570;2023-02-01T08:10:38;98074.03;;;4.10;58.37
70217;BME280;65567;55.684;37.570;2023-02-01T08:13:04;98065.31;;;4.11;58.12
70217;BME280;65567;55.684;37.570;2023-02-01T08:15:30;98060.97;;;4.32;57.81
70217;BME280;65567;55.684;37.570;2023-02-01T08:17:56;98068.13;;;4.46;57.55
70217;BME280;65567;55.684;37.570;2023-02-01T08:20:24;98063.66;;;4.69;56.95
70217;BME280;65567;55.684;37.570;2023-02-01T08:22:51;98059.53;;;4.65;57.05
70217;BME280;65567;55.684;37.570;2023-02-01T08:25:17;98059.22;;;4.71;57.01
70217;BME280;65567;55.684;37.570;2023-02-01T08:27:44;98062.75;;;4.70;56.85
70217;BME280;65567;55.684;37.570;2023-02-01T08:30:10;98053.63;;;4.80;56.59
70217;BME280;65567;55.684;37.570;2023-02-01T08:32:37;98069.94;;;4.82;56.38
70217;BME280;65567;55.684;37.570;2023-02-01T08:35:04;98064.91;;;4.79;56.76
70217;BME280;65567;55.684;37.570;2023-02-01T08:37:30;98060.19;;;4.87;56.28
70217;BME280;65567;55.684;37.570;2023-02-01T08:39:56;98063.00;;;5.02;56.09
70217;BME280;65567;55.684;37.570;2023-02-01T08:42:22;98053.03;;;5.11;55.77
70217;BME280;65567;55.684;37.570;2023-02-01T08:45:07;98061.03;;;5.07;55.77
70217;BME280;65567;55.684;37.570;2023-02-01T08:47:34;98055.91;;;5.05;55.77
70217;BME280;65567;55.684;37.570;2023-02-01T08:50:01;98056.78;;;5.23;55.60
70217;BME280;65567;55.684;37.570;2023-02-01T08:52:27;98053.28;;;5.24;55.55
70217;BME280;65567;55.684;37.570;2023-02-01T08:54:53;98034.94;;;5.27;55.18
70217;BME280;65567;55.684;37.570;2023-02-01T08:57:18;98045.03;;;5.34;55.22
70217;BME280;65567;55.684;37.570;2023-02-01T08:59:44;98052.88;;;5.15;55.17
70217;BME280;65567;55.684;37.570;2023-02-01T09:02:14;98055.53;;;4.95;55.23
70217;BME280;65567;55.684;37.570;2023-02-01T09:04:41;98057.25;;;4.95;55.58
70217;BME280;65567;55.684;37.570;2023-02-01T09:07:09;98055.25;;;5.19;54.76
70217;BME280;65567;55.684;37.570;2023-02-01T09:09:35;98052.78;;;4.99;55.25
70217;BME280;65567;55.684;37.570;2023-02-01T09:12:02;98052.91;;;4.95;55.27
70217;BME280;65567;55.684;37.570;2023-02-01T09:14:28;98053.03;;;5.11;55.07
70217;BME280;65567;55.684;37.570;2023-02-01T09:16:54;98038.91;;;5.17;54.82
70217;BME280;65567;55.684;37.570;2023-02-01T09:19:21;98034.78;;;5.13;55.08
70217;BME280;65567;55.684;37.570;2023-02-01T09:21:47;98043.88;;;5.22;55.07
70217;BME280;65567;55.684;37.570;2023-02-01T09:24:13;98044.44;;;5.28;54.72
70217;BME280;65567;55.684;37.570;2023-02-01T09:26:39;98050.44;;;5.11;54.96
70217;BME280;65567;55.684;37.570;2023-02-01T09:29:05;98040.50;;;5.02;55.24
70217;BME280;65567;55.684;37.570;2023-02-01T09:31:39;98039.25;;;4.92;55.52
70217;BME280;65567;55.684;37.570;2023-02-01T09:34:06;98040.66;;;4.80;55.92
70217;BME280;65567;55.684;37.570;2023-02-01T09:36:35;98045.41;;;4.89;55.64
70217;BME280;65567;55.684;37.570;2023-02-01T09:39:02;98042.41;;;4.79;55.80
70217;BME280;65567;55.684;37.570;2023-02-01T09:47:21;98042.91;;;4.69;56.37
70217;BME280;65567;55.684;37.570;2023-02-01T09:49:56;98036.81;;;4.51;56.75
70217;BME280;65567;55.684;37.570;2023-02-01T09:52:30;98048.16;;;4.48;56.74
70217;BME280;65567;55.684;37.570;2023-02-01T09:55:01;98035.81;;;4.53;56.79
70217;BME280;65567;55.684;37.570;2023-02-01T09:57:40;98031.03;;;4.82;56.06
70217;BME280;65567;55.684;37.570;2023-02-01T10:00:20;98031.19;;;4.79;55.82
70217;BME280;65567;55.684;37.570;2023-02-01T10:02:50;98029.31;;;4.63;56.36
70217;BME280;65567;55.684;37.570;2023-02-01T10:05:30;98030.09;;;4.66;56.30
70217;BME280;65567;55.684;37.570;2023-02-01T10:08:39;98025.44;;;4.72;56.15
70217;BME280;65567;55.684;37.570;2023-02-01T10:11:19;98030.63;;;4.72;56.16
70217;BME280;65567;55.684;37.570;2023-02-01T10:14:16;98025.56;;;4.88;55.87
70217;BME280;65567;55.684;37.570;2023-02-01T10:25:14;98021.81;;;4.94;56.52
70217;BME280;65567;55.684;37.570;2023-02-01T10:27:44;98029.34;;;4.81;57.41
70217;BME280;65567;55.684;37.570;2023-02-01T10:30:21;98034.25;;;4.87;57.12
70217;BME280;65567;55.684;37.570;2023-02-01T10:33:36;98024.47;;;4.75;57.36
70217;BME280;65567;55.684;37.570;2023-02-01T10:35:36;98020.38;;;4.88;56.87
70217;BME280;65567;55.684;37.570;2023-02-01T10:38:13;98023.69;;;4.92;56.96
70217;BME280;65567;55.684;37.570;2023-02-01T10:40:42;98024.66;;;4.89;56.99
70217;BME280;65567;55.684;37.570;2023-02-01T10:43:09;98023.06;;;4.87;56.97
70217;BME280;65567;55.684;37.570;2023-02-01T10:45:43;98025.38;;;4.93;56.96
70217;BME280;65567;55.684;37.570;2023-02-01T10:48:09;98023.59;;;4.93;56.92
70217;BME280;65567;55.684;37.570;2023-02-01T10:50:46;98032.88;;;4.80;57.71
70217;BME280;65567;55.684;37.570;2023-02-01T10:55:46;98026.28;;;4.73;57.99
70217;BME280;65567;55.684;37.570;2023-02-01T10:58:27;98027.50;;;4.66;58.34
70217;BME280;65567;55.684;37.570;2023-02-01T11:01:25;98027.81;;;4.77;57.55
70217;BME280;65567;55.684;37.570;2023-02-01T11:04:02;98028.94;;;4.52;58.15
70217;BME280;65567;55.684;37.570;2023-02-01T11:09:01;98028.25;;;4.68;57.43
70217;BME280;65567;55.684;37.570;2023-02-01T11:12:01;98027.97;;;4.74;57.26
70217;BME280;65567;55.684;37.570;2023-02-01T11:14:40;98026.56;;;4.67;57.76
70217;BME280;65567;55.684;37.570;2023-02-01T11:20:08;98019.72;;;4.66;57.29
70217;BME280;65567;55.684;37.570;2023-02-01T11:22:46;98025.03;;;4.62;57.44
70217;BME280;65567;55.684;37.570;2023-02-01T11:25:14;98034.00;;;4.55;57.59
70217;BME280;65567;55.684;37.570;2023-02-01T11:27:41;98025.44;;;4.53;57.40
70217;BME280;65567;55.684;37.570;2023-02-01T11:30:17;98020.69;;;4.44;57.76
70217;BME280;65567;55.684;37.570;2023-02-01T11:32:48;98030.47;;;4.56;57.54
70217;BME280;65567;55.684;37.570;2023-02-01T11:35:19;98037.25;;;4.60;57.10
70217;BME280;65567;55.684;37.570;2023-02-01T11:37:57;98029.66;;;4.56;57.24
70217;BME280;65567;55.684;37.570;2023-02-01T11:40:33;98034.28;;;4.68;56.82
70217;BME280;65567;55.684;37.570;2023-02-01T11:43:08;98031.81;;;4.46;57.04
70217;BME280;65567;55.684;37.570;2023-02-01T11:45:35;98035.16;;;4.29;57.36
70217;BME280;65567;55.684;37.570;2023-02-01T11:48:09;98045.56;;;4.48;56.95
70217;BME280;65567;55.684;37.570;2023-02-01T11:56:07;98040.47;;;4.66;56.42
70217;BME280;65567;55.684;37.570;2023-02-01T12:07:28;98053.91;;;4.74;56.03
70217;BME280;65567;55.684;37.570;2023-02-01T12:10:25;98061.22;;;4.66;56.00
70217;BME280;65567;55.684;37.570;2023-02-01T12:32:26;98069.31;;;4.39;55.75
70217;BME280;65567;55.684;37.570;2023-02-01T12:35:29;98068.91;;;4.48;55.59
70217;BME280;65567;55.684;37.570;2023-02-01T12:46:22;98065.63;;;4.63;54.98
70217;BME280;65567;55.684;37.570;2023-02-01T12:49:26;98071.28;;;4.53;55.41
70217;BME280;65567;55.684;37.570;2023-02-01T12:51:45;98068.63;;;4.54;55.14
70217;BME280;65567;55.684;37.570;2023-02-01T12:56:47;98062.94;;;4.46;55.05
70217;BME280;65567;55.684;37.570;2023-02-01T12:59:27;98068.56;;;4.56;54.94
70217;BME280;65567;55.684;37.570;2023-02-01T13:07:21;98078.59;;;4.63;54.30
70217;BME280;65567;55.684;37.570;2023-02-01T13:09:54;98068.53;;;4.37;54.85
70217;BME280;65567;55.684;37.570;2023-02-01T13:15:31;98081.56;;;4.35;54.70
70217;BME280;65567;55.684;37.570;2023-02-01T13:18:03;98078.47;;;4.27;55.03
70217;BME280;65567;55.684;37.570;2023-02-01T13:20:42;98078.13;;;4.35;54.83
70217;BME280;65567;55.684;37.570;2023-02-01T13:23:26;98075.47;;;4.36;54.80
70217;BME280;65567;55.684;37.570;2023-02-01T13:25:54;98070.56;;;4.30;54.85
70217;BME280;65567;55.684;37.570;2023-02-01T13:33:44;98082.88;;;4.25;54.56
70217;BME280;65567;55.684;37.570;2023-02-01T13:37:08;98086.66;;;4.18;54.58
70217;BME280;65567;55.684;37.570;2023-02-01T13:44:48;98081.50;;;4.37;53.87
70217;BME280;65567;55.684;37.570;2023-02-01T13:47:54;98084.50;;;4.27;54.30
70217;BME280;65567;55.684;37.570;2023-02-01T13:50:34;98087.16;;;4.26;53.91
70217;BME280;65567;55.684;37.570;2023-02-01T13:55:51;98084.38;;;4.30;54.12
70217;BME280;65567;55.684;37.570;2023-02-01T13:58:35;98089.97;;;4.01;54.28
70217;BME280;65567;55.684;37.570;2023-02-01T14:04:01;98085.88;;;3.95;54.52
70217;BME280;65567;55.684;37.570;2023-02-01T14:09:16;98097.09;;;3.95;54.35
70217;BME280;65567;55.684;37.570;2023-02-01T14:11:50;98095.09;;;4.02;54.31
70217;BME280;65567;55.684;37.570;2023-02-01T14:17:29;98085.38;;;4.07;53.97
70217;BME280;65567;55.684;37.570;2023-02-01T14:19:32;98085.44;;;4.06;54.05
70217;BME280;65567;55.684;37.570;2023-02-01T14:24:51;98089.97;;;4.01;54.14
70217;BME280;65567;55.684;37.570;2023-02-01T14:27:28;98094.63;;;3.92;54.53
70217;BME280;65567;55.684;37.570;2023-02-01T14:29:59;98088.03;;;3.85;54.70
70217;BME280;65567;55.684;37.570;2023-02-01T14:32:31;98087.47;;;3.77;54.83
70217;BME280;65567;55.684;37.570;2023-02-01T14:35:01;98091.31;;;3.89;54.52
70217;BME280;65567;55.684;37.570;2023-02-01T14:37:35;98096.97;;;3.99;54.39
70217;BME280;65567;55.684;37.570;2023-02-01T14:40:15;98101.31;;;3.98;54.53
70217;BME280;65567;55.684;37.570;2023-02-01T14:58:35;98119.59;;;3.73;55.16
70217;BME280;65567;55.684;37.570;2023-02-01T15:09:58;98115.38;;;3.70;54.96
70217;BME280;65567;55.684;37.570;2023-02-01T15:17:19;98112.44;;;3.57;54.73
70217;BME280;65567;55.684;37.570;2023-02-01T15:20:01;98116.34;;;3.68;54.61
70217;BME280;65567;55.684;37.570;2023-02-01T15:22:29;98114.44;;;3.93;54.05
70217;BME280;65567;55.684;37.570;2023-02-01T15:25:00;98121.41;;;3.91;53.95
70217;BME280;65567;55.684;37.570;2023-02-01T15:27:27;98122.19;;;3.73;54.25
70217;BME280;65567;55.684;37.570;2023-02-01T15:29:54;98122.31;;;3.70;54.52
70217;BME280;65567;55.684;37.570;2023-02-01T15:32:39;98126.09;;;3.83;54.27
70217;BME280;65567;55.684;37.570;2023-02-01T15:35:41;98137.28;;;3.84;54.40
70217;BME280;65567;55.684;37.570;2023-02-01T15:41:10;98130.28;;;3.65;55.05
70217;BME280;65567;55.684;37.570;2023-02-01T15:46:24;98125.94;;;3.66;54.85
70217;BME280;65567;55.684;37.570;2023-02-01T15:48:55;98140.88;;;3.59;55.31
70217;BME280;65567;55.684;37.570;2023-02-01T15:51:27;98141.59;;;3.62;55.49
70217;BME280;65567;55.684;37.570;2023-02-01T15:54:06;98137.94;;;3.46;55.91
70217;BME280;65567;55.684;37.570;2023-02-01T15:56:38;98137.50;;;3.57;55.96
70217;BME280;65567;55.684;37.570;2023-02-01T15:59:16;98134.56;;;3.66;55.44
70217;BME280;65567;55.684;37.570;2023-02-01T16:01:42;98134.72;;;3.61;55.61
70217;BME280;65567;55.684;37.570;2023-02-01T16:04:26;98139.75;;;3.44;56.09
70217;BME280;65567;55.684;37.570;2023-02-01T16:07:00;98129.63;;;3.38;56.19
70217;BME280;65567;55.684;37.570;2023-02-01T16:09:37;98139.69;;;3.45;56.17
70217;BME280;65567;55.684;37.570;2023-02-01T16:14:55;98137.59;;;3.33;56.08